createdAt,value
2022-08-10T00:00:22.943Z,102042.03
2022-08-10T00:02:25.000Z,102045.28
2022-08-10T00:04:27.055Z,102044.81
2022-08-10T00:06:29.312Z,102054.22
2022-08-10T00:08:31.358Z,102048.75
2022-08-10T00:10:33.421Z,102045.00
2022-08-10T00:12:54.299Z,102047.13
2022-08-10T00:14:57.063Z,102055.25
2022-08-10T00:16:59.048Z,102046.75
2022-08-10T00:19:01.095Z,102050.06
2022-08-10T00:21:05.405Z,102055.66
2022-08-10T00:23:07.477Z,102059.28
2022-08-10T00:25:09.645Z,102049.41
2022-08-10T00:27:58.542Z,102051.06
2022-08-10T00:29:33.627Z,102051.72
2022-08-10T00:31:58.709Z,102060.13
2022-08-10T00:33:57.578Z,102048.78
2022-08-10T00:35:59.577Z,102052.06
2022-08-10T00:38:01.576Z,102048.31
2022-08-10T00:40:05.606Z,102047.03
2022-08-10T00:42:08.782Z,102047.69
2022-08-10T00:44:10.780Z,102054.63
2022-08-10T00:46:12.752Z,102057.59
2022-08-10T00:48:14.750Z,102056.47
2022-08-10T00:50:18.203Z,102056.66
2022-08-10T00:52:20.269Z,102061.41
2022-08-10T00:54:24.467Z,102060.59
2022-08-10T00:57:14.485Z,102059.94
2022-08-10T00:58:49.534Z,102056.50
2022-08-10T01:00:51.517Z,102055.69
2022-08-10T01:02:53.696Z,102063.88
2022-08-10T01:05:00.924Z,102058.94
2022-08-10T01:07:53.299Z,102061.41
2022-08-10T01:10:28.403Z,102059.63
2022-08-10T01:13:11.535Z,102056.00
2022-08-10T01:15:29.775Z,102056.84
2022-08-10T01:17:54.334Z,102066.03
2022-08-10T01:20:30.064Z,102061.28
2022-08-10T01:23:25.846Z,102059.31
2022-08-10T01:26:12.046Z,102059.97
2022-08-10T01:28:55.219Z,102067.84
2022-08-10T01:30:58.206Z,102065.53
2022-08-10T01:33:57.987Z,102067.84
2022-08-10T01:35:58.042Z,102059.47
2022-08-10T01:38:10.904Z,102051.56
2022-08-10T01:40:13.847Z,102057.84
2022-08-10T01:42:19.210Z,102056.34
2022-08-10T01:44:40.206Z,102059.47
2022-08-10T01:46:46.860Z,102050.28
2022-08-10T01:48:51.552Z,102059.47
2022-08-10T01:51:02.743Z,102061.44
2022-08-10T01:53:14.025Z,102058.81
2022-08-10T01:55:16.054Z,102063.38
2022-08-10T01:57:18.102Z,102059.94
2022-08-10T01:59:33.166Z,102062.88
2022-08-10T02:01:52.360Z,102059.97
2022-08-10T02:04:05.019Z,102055.38
2022-08-10T02:06:07.885Z,102060.97
2022-08-10T02:08:15.752Z,102051.56
2022-08-10T02:10:19.325Z,102048.59
2022-08-10T02:12:24.729Z,102049.75
2022-08-10T02:14:45.236Z,102041.72
2022-08-10T02:16:50.613Z,102044.81
2022-08-10T02:18:53.804Z,102053.66
2022-08-10T02:20:55.792Z,102050.25
2022-08-10T02:23:03.677Z,102049.75
2022-08-10T02:25:09.165Z,102048.91
2022-08-10T02:27:14.485Z,102043.69
2022-08-10T02:29:16.974Z,102055.63
2022-08-10T02:31:22.300Z,102051.88
2022-08-10T02:33:26.675Z,102052.19
2022-08-10T02:35:33.491Z,102050.22
2022-08-10T02:37:52.959Z,102050.03
2022-08-10T02:39:54.984Z,102058.59
2022-08-10T02:45:02.364Z,102054.50
2022-08-10T02:45:29.406Z,102057.22
2022-08-10T02:47:51.528Z,102048.25
2022-08-10T02:50:27.325Z,102045.09
2022-08-10T02:52:52.716Z,102049.53
2022-08-10T02:55:17.839Z,102041.16
2022-08-10T02:57:24.881Z,102041.31
2022-08-10T02:59:39.873Z,102048.88
2022-08-10T03:01:46.424Z,102045.25
2022-08-10T03:04:08.280Z,102043.63
2022-08-10T03:06:14.447Z,102048.69
2022-08-10T03:08:19.400Z,102058.41
2022-08-10T03:10:27.696Z,102050.34
2022-08-10T03:12:37.131Z,102057.56
2022-08-10T03:14:40.513Z,102054.25
2022-08-10T03:16:42.592Z,102061.00
2022-08-10T03:18:44.606Z,102061.47
2022-08-10T03:20:46.616Z,102057.53
2022-08-10T03:22:52.274Z,102066.72
2022-08-10T03:24:54.305Z,102069.50
2022-08-10T03:26:56.280Z,102072.34
2022-08-10T03:29:03.805Z,102065.56
2022-08-10T03:31:05.895Z,102073.75
2022-08-10T03:33:07.998Z,102067.22
2022-08-10T03:35:10.127Z,102076.25
2022-08-10T03:37:12.115Z,102068.84
2022-08-10T03:39:14.260Z,102071.78
2022-08-10T03:41:16.716Z,102063.53
2022-08-10T03:43:21.067Z,102068.28
2022-08-10T03:45:23.094Z,102075.69
2022-08-10T03:47:25.106Z,102078.16
2022-08-10T03:49:28.008Z,102078.34
2022-08-10T03:51:30.197Z,102077.66
2022-08-10T03:54:03.193Z,102083.25
2022-08-10T03:56:28.289Z,102074.88
2022-08-10T03:58:16.166Z,102081.94
2022-08-10T04:00:20.803Z,102085.84
2022-08-10T04:02:44.141Z,102082.22
2022-08-10T04:04:45.072Z,102084.38
2022-08-10T04:06:47.108Z,102081.75
2022-08-10T04:08:53.355Z,102087.16
2022-08-10T04:10:55.505Z,102084.06
2022-08-10T04:12:58.950Z,102081.47
2022-08-10T04:15:01.066Z,102088.34
2022-08-10T04:17:03.053Z,102084.09
2022-08-10T04:19:05.122Z,102091.50
2022-08-10T04:21:19.357Z,102083.44
2022-08-10T04:23:26.598Z,102088.25
2022-08-10T04:25:28.601Z,102093.47
2022-08-10T04:27:30.621Z,102098.09
2022-08-10T04:29:32.597Z,102093.47
2022-08-10T04:31:34.639Z,102094.00
2022-08-10T04:33:37.918Z,102098.94
2022-08-10T04:35:39.892Z,102092.19
2022-08-10T04:37:43.420Z,102090.22
2022-08-10T04:39:49.711Z,102087.31
2022-08-10T04:41:51.783Z,102097.66
2022-08-10T04:43:53.794Z,102091.41
2022-08-10T04:45:55.863Z,102100.28
2022-08-10T04:48:03.029Z,102102.09
2022-08-10T04:50:05.930Z,102107.19
2022-08-10T04:52:07.824Z,102101.97
2022-08-10T04:54:13.040Z,102099.84
2022-08-10T04:56:17.796Z,102098.88
2022-08-10T04:58:19.990Z,102101.00
2022-08-10T05:00:22.003Z,102101.16
2022-08-10T05:02:29.008Z,102101.19
2022-08-10T05:04:38.310Z,102094.78
2022-08-10T05:06:41.227Z,102096.25
2022-08-10T05:08:43.244Z,102104.44
2022-08-10T05:10:45.214Z,102098.25
2022-08-10T05:12:47.328Z,102107.56
2022-08-10T05:14:49.407Z,102104.63
2022-08-10T05:16:51.411Z,102110.03
2022-08-10T05:18:53.379Z,102107.56
2022-08-10T05:20:55.394Z,102114.16
2022-08-10T05:22:57.440Z,102115.94
2022-08-10T05:24:59.433Z,102125.78
2022-08-10T05:27:09.988Z,102117.56
2022-08-10T05:29:12.546Z,102118.03
2022-08-10T05:31:17.755Z,102118.19
2022-08-10T05:33:25.952Z,102114.41
2022-08-10T05:35:51.762Z,102117.38
2022-08-10T05:38:13.346Z,102119.31
2022-08-10T05:40:14.146Z,102108.78
2022-08-10T05:42:17.931Z,102108.63
2022-08-10T05:44:23.044Z,102113.56
2022-08-10T05:46:25.047Z,102113.88
2022-08-10T05:48:57.769Z,102111.34
2022-08-10T05:50:49.191Z,102114.13
2022-08-10T05:52:51.199Z,102109.47
2022-08-10T05:54:53.209Z,102117.03
2022-08-10T05:56:58.251Z,102105.31
2022-08-10T05:59:00.506Z,102109.72
2022-08-10T06:01:08.039Z,102117.94
2022-08-10T06:03:10.026Z,102117.06
2022-08-10T06:05:23.886Z,102114.56
2022-08-10T06:07:27.483Z,102114.84
2022-08-10T06:09:30.540Z,102111.03
2022-08-10T06:12:35.190Z,102115.63
2022-08-10T06:14:16.610Z,102115.91
2022-08-10T06:16:21.509Z,102122.16
2022-08-10T06:18:24.317Z,102130.00
2022-08-10T06:20:26.288Z,102130.28
2022-08-10T06:22:33.532Z,102130.53
2022-08-10T06:24:50.969Z,102129.19
2022-08-10T06:27:00.128Z,102129.19
2022-08-10T06:29:13.957Z,102136.72
2022-08-10T06:31:15.970Z,102124.59
2022-08-10T06:33:21.073Z,102122.28
2022-08-10T06:35:25.481Z,102124.88
2022-08-10T06:37:29.385Z,102121.84
2022-08-10T06:39:34.433Z,102120.59
2022-08-10T06:41:58.067Z,102127.50
2022-08-10T06:44:11.476Z,102115.84
2022-08-10T06:46:16.377Z,102119.16
2022-08-10T06:48:41.926Z,102121.72
2022-08-10T06:50:58.648Z,102118.34
2022-08-10T06:53:02.014Z,102120.63
2022-08-10T06:55:05.371Z,102117.25
2022-08-10T06:57:17.745Z,102125.09
2022-08-10T06:59:22.139Z,102122.88
2022-08-10T07:01:30.199Z,102113.50
2022-08-10T07:03:37.028Z,102123.47
2022-08-10T07:05:43.493Z,102120.56
2022-08-10T07:07:47.363Z,102114.38
2022-08-10T07:09:49.540Z,102125.34
2022-08-10T07:11:51.544Z,102111.56
2022-08-10T07:14:16.504Z,102122.78
2022-08-10T07:16:18.866Z,102117.88
2022-08-10T07:18:20.834Z,102123.34
2022-08-10T07:20:22.955Z,102123.16
2022-08-10T07:23:27.373Z,102134.97
2022-08-10T07:24:50.622Z,102123.25
2022-08-10T07:26:54.893Z,102130.72
2022-08-10T07:28:56.934Z,102123.94
2022-08-10T07:30:58.949Z,102126.84
2022-08-10T07:33:01.745Z,102135.97
2022-08-10T07:35:04.012Z,102124.47
2022-08-10T07:37:08.111Z,102122.69
2022-08-10T07:39:10.354Z,102125.34
2022-08-10T07:41:12.482Z,102123.81
2022-08-10T07:43:19.321Z,102129.38
2022-08-10T07:45:21.398Z,102119.16
2022-08-10T07:47:52.956Z,102131.81
2022-08-10T07:49:54.100Z,102133.47
2022-08-10T07:51:57.288Z,102129.75
2022-08-10T07:54:01.994Z,102128.88
2022-08-10T07:56:16.951Z,102133.16
2022-08-10T07:58:30.383Z,102127.53
2022-08-10T08:00:32.450Z,102133.25
2022-08-10T08:02:55.649Z,102136.63
2022-08-10T08:05:08.265Z,102139.09
2022-08-10T08:07:10.408Z,102132.19
2022-08-10T08:09:15.686Z,102129.09
2022-08-10T08:11:26.090Z,102124.19
2022-08-10T08:13:28.835Z,102126.47
2022-08-10T08:16:19.281Z,102128.81
2022-08-10T08:18:00.525Z,102122.75
2022-08-10T08:20:03.150Z,102126.25
2022-08-10T08:24:09.714Z,102116.41
2022-08-10T08:24:32.773Z,102121.69
2022-08-10T08:26:37.134Z,102115.94
2022-08-10T08:28:39.119Z,102120.00
2022-08-10T08:30:43.546Z,102122.59
2022-08-10T08:32:48.982Z,102120.81
2022-08-10T08:35:04.130Z,102112.56
2022-08-10T08:37:07.569Z,102115.66
2022-08-10T08:39:11.026Z,102100.81
2022-08-10T08:41:43.794Z,102116.44
2022-08-10T08:43:56.718Z,102119.03
2022-08-10T08:46:37.624Z,102109.94
2022-08-10T08:49:08.398Z,102112.72
2022-08-10T08:52:08.002Z,102110.56
2022-08-10T08:54:51.273Z,102111.94
2022-08-10T08:57:22.836Z,102108.22
2022-08-10T09:00:11.092Z,102100.00
2022-08-10T09:02:55.087Z,102105.66
2022-08-10T09:05:22.766Z,102102.22
2022-08-10T09:08:01.576Z,102100.91
2022-08-10T09:10:37.735Z,102101.31
2022-08-10T09:13:10.403Z,102086.75
2022-08-10T09:15:58.663Z,102091.88
2022-08-10T09:18:05.089Z,102089.97
2022-08-10T09:20:51.593Z,102086.13
2022-08-10T09:23:01.743Z,102094.81
2022-08-10T09:25:21.952Z,102094.41
2022-08-10T09:27:35.685Z,102086.19
2022-08-10T09:29:45.192Z,102091.13
2022-08-10T09:33:05.983Z,102087.53
2022-08-10T09:36:25.556Z,102086.03
2022-08-10T09:37:39.270Z,102087.81
2022-08-10T09:40:56.326Z,102079.88
2022-08-10T09:42:53.087Z,102078.41
2022-08-10T09:45:37.572Z,102077.09
2022-08-10T09:48:07.010Z,102075.00
2022-08-10T09:50:21.776Z,102083.97
2022-08-10T09:52:59.150Z,102083.97
2022-08-10T09:56:17.953Z,102068.59
2022-08-10T09:58:20.754Z,102079.50
2022-08-10T10:00:35.626Z,102075.91
2022-08-10T10:03:10.403Z,102061.00
2022-08-10T10:05:50.295Z,102057.38
2022-08-10T10:08:24.559Z,102058.94
2022-08-10T10:10:35.653Z,102061.38
2022-08-10T10:12:57.033Z,102064.66
2022-08-10T10:15:24.000Z,102057.72
2022-08-10T10:17:42.493Z,102054.34
2022-08-10T10:20:11.441Z,102052.94
2022-08-10T10:22:22.061Z,102051.47
2022-08-10T10:24:51.290Z,102041.00
2022-08-10T10:27:32.202Z,102052.25
2022-08-10T10:30:01.214Z,102052.63
2022-08-10T10:32:36.541Z,102047.03
2022-08-10T10:35:01.818Z,102040.56
2022-08-10T10:37:06.625Z,102035.47
2022-08-10T10:39:08.697Z,102027.59
2022-08-10T10:41:30.233Z,102033.97
2022-08-10T10:44:10.236Z,102035.63
2022-08-10T10:46:44.765Z,102032.56
2022-08-10T10:49:13.824Z,102034.38
2022-08-10T10:51:25.680Z,102032.97
2022-08-10T10:54:16.546Z,102034.03
2022-08-10T10:56:45.141Z,102028.69
2022-08-10T10:59:53.905Z,102026.59
2022-08-10T11:01:54.788Z,102025.25
2022-08-10T11:04:04.506Z,102024.28
2022-08-10T11:06:48.108Z,102023.81
2022-08-10T11:08:55.703Z,102012.19
2022-08-10T11:12:00.459Z,102019.69
2022-08-10T11:14:29.096Z,102020.75
2022-08-10T11:16:39.129Z,102021.94
2022-08-10T11:19:20.193Z,102015.50
2022-08-10T11:21:50.694Z,102017.78
2022-08-10T11:24:50.483Z,102002.00
2022-08-10T11:27:22.312Z,102001.72
2022-08-10T11:29:35.247Z,102007.56
2022-08-10T11:31:59.217Z,102001.38
2022-08-10T11:34:48.976Z,101999.13
2022-08-10T11:37:05.486Z,101997.78
2022-08-10T11:39:19.847Z,101998.44
2022-08-10T11:42:07.981Z,101995.47
2022-08-10T11:43:57.495Z,102002.78
2022-08-10T11:46:28.439Z,101996.84
2022-08-10T11:48:53.922Z,101995.47
2022-08-10T11:51:00.214Z,101992.88
2022-08-10T11:53:22.521Z,101991.59
2022-08-10T11:55:33.015Z,101991.59
2022-08-10T11:57:53.397Z,101994.97
2022-08-10T11:59:57.968Z,101984.94
2022-08-10T12:02:00.727Z,101987.03
2022-08-10T12:04:07.613Z,101987.91
2022-08-10T12:06:39.244Z,101982.63
2022-08-10T12:10:06.365Z,101984.03
2022-08-10T12:11:05.762Z,101997.22
2022-08-10T12:13:26.719Z,101983.09
2022-08-10T12:15:35.756Z,101977.59
2022-08-10T12:17:52.057Z,101979.22
2022-08-10T12:20:09.944Z,101980.53
2022-08-10T12:22:14.963Z,101982.75
2022-08-10T12:24:26.239Z,101981.28
2022-08-10T12:26:48.885Z,101977.75
2022-08-10T12:29:27.529Z,101972.03
2022-08-10T12:31:45.883Z,101968.50
2022-08-10T12:34:24.200Z,101973.75
2022-08-10T12:36:33.709Z,101974.06
2022-08-10T12:39:07.263Z,101962.38
2022-08-10T12:41:49.958Z,101961.13
2022-08-10T12:44:19.313Z,101959.66
2022-08-10T12:46:41.473Z,101952.84
2022-08-10T12:49:14.415Z,101961.78
2022-08-10T12:51:35.655Z,101958.47
2022-08-10T12:54:14.298Z,101956.84
2022-08-10T12:56:33.949Z,101945.81
2022-08-10T12:58:59.421Z,101948.22
2022-08-10T13:01:16.468Z,101945.31
2022-08-10T13:04:21.365Z,101937.47
2022-08-10T13:05:54.741Z,101926.75
2022-08-10T13:08:27.195Z,101923.41
2022-08-10T13:10:30.098Z,101923.84
2022-08-10T13:12:39.877Z,101918.25
2022-08-10T13:14:47.645Z,101923.22
2022-08-10T13:16:49.696Z,101917.59
2022-08-10T13:18:51.802Z,101913.22
2022-08-10T13:20:56.198Z,101924.06
2022-08-10T13:23:00.131Z,101896.84
2022-08-10T13:25:03.961Z,101899.66
2022-08-10T13:27:25.752Z,101913.66
2022-08-10T13:29:38.750Z,101917.00
2022-08-10T13:32:04.525Z,101914.22
2022-08-10T13:34:42.838Z,101919.25
2022-08-10T13:36:38.156Z,101904.16
2022-08-10T13:38:41.049Z,101908.00
2022-08-10T13:40:43.041Z,101905.44
2022-08-10T13:42:45.103Z,101898.69
2022-08-10T13:44:54.782Z,101905.66
2022-08-10T13:46:56.940Z,101898.50
2022-08-10T13:48:59.039Z,101896.09
2022-08-10T13:51:02.740Z,101890.53
2022-08-10T13:53:14.912Z,101887.44
2022-08-10T13:55:17.685Z,101891.75
2022-08-10T13:57:29.913Z,101889.66
2022-08-10T14:00:33.000Z,101883.28
2022-08-10T14:01:55.778Z,101867.56
2022-08-10T14:03:58.427Z,101867.38
2022-08-10T14:06:00.437Z,101871.06
2022-08-10T14:08:03.574Z,101870.19
2022-08-10T14:10:11.086Z,101872.38
2022-08-10T14:12:13.086Z,101872.72
2022-08-10T14:14:17.766Z,101863.69
2022-08-10T14:16:19.835Z,101867.69
2022-08-10T14:18:21.884Z,101855.75
2022-08-10T14:20:33.837Z,101863.50
2022-08-10T14:22:36.559Z,101857.78
2022-08-10T14:24:38.588Z,101857.28
2022-08-10T14:26:40.760Z,101854.47
2022-08-10T14:28:50.430Z,101857.28
2022-08-10T14:31:06.586Z,101847.63
2022-08-10T14:33:08.663Z,101853.19
2022-08-10T14:36:19.218Z,101848.06
2022-08-10T14:37:42.340Z,101853.13
2022-08-10T14:39:48.820Z,101847.97
2022-08-10T14:42:03.854Z,101844.22
2022-08-10T14:44:11.790Z,101844.06
2022-08-10T14:46:19.960Z,101848.56
2022-08-10T14:48:32.891Z,101842.19
2022-08-10T14:50:35.211Z,101838.50
2022-08-10T14:52:43.898Z,101834.56
2022-08-10T14:54:50.904Z,101832.59
2022-08-10T14:56:53.734Z,101826.56
2022-08-10T14:59:06.289Z,101830.97
2022-08-10T15:01:09.519Z,101838.81
2022-08-10T15:04:01.630Z,101830.06
2022-08-10T15:05:39.727Z,101834.25
2022-08-10T15:07:48.305Z,101830.47
2022-08-10T15:10:04.179Z,101820.63
2022-08-10T15:12:14.805Z,101825.91
2022-08-10T15:14:43.032Z,101828.69
2022-08-10T15:16:41.293Z,101824.69
2022-08-10T15:18:58.356Z,101823.19
2022-08-10T15:21:02.668Z,101820.97
2022-08-10T15:23:30.517Z,101819.31
2022-08-10T15:25:36.520Z,101817.22
2022-08-10T15:27:54.458Z,101821.72
2022-08-10T15:29:58.305Z,101819.66
2022-08-10T15:32:18.948Z,101804.91
2022-08-10T15:34:39.675Z,101800.13
2022-08-10T15:37:36.147Z,101798.16
2022-08-10T15:40:12.398Z,101807.41
2022-08-10T15:42:05.884Z,101802.38
2022-08-10T15:44:07.955Z,101805.06
2022-08-10T15:46:19.182Z,101804.44
2022-08-10T15:48:22.092Z,101793.72
2022-08-10T15:50:32.968Z,101792.09
2022-08-10T15:53:00.869Z,101794.47
2022-08-10T15:55:44.291Z,101803.78
2022-08-10T15:57:44.148Z,101793.84
2022-08-10T15:59:53.601Z,101797.47
2022-08-10T16:02:24.928Z,101790.91
2022-08-10T16:04:33.459Z,101791.09
2022-08-10T16:07:00.900Z,101795.41
2022-08-10T16:10:22.465Z,101790.41
2022-08-10T16:11:38.708Z,101785.13
2022-08-10T16:13:59.453Z,101789.66
2022-08-10T16:16:05.932Z,101783.81
2022-08-10T16:18:11.773Z,101780.91
2022-08-10T16:20:13.824Z,101793.22
2022-08-10T16:22:34.421Z,101786.22
2022-08-10T16:24:39.135Z,101779.19
2022-08-10T16:26:45.831Z,101780.63
2022-08-10T16:29:00.939Z,101779.63
2022-08-10T16:31:05.844Z,101790.09
2022-08-10T16:33:10.372Z,101785.50
2022-08-10T16:35:13.539Z,101792.97
2022-08-10T16:37:16.020Z,101792.03
2022-08-10T16:39:59.718Z,101785.09
2022-08-10T16:42:14.565Z,101786.31
2022-08-10T16:44:18.490Z,101779.66
2022-08-10T16:46:21.482Z,101784.75
2022-08-10T16:48:50.273Z,101784.41
2022-08-10T16:50:58.084Z,101775.91
2022-08-10T16:53:02.302Z,101772.31
2022-08-10T16:55:17.157Z,101776.97
2022-08-10T16:57:26.850Z,101771.56
2022-08-10T16:59:34.572Z,101771.91
2022-08-10T17:01:37.993Z,101766.88
2022-08-10T17:04:06.516Z,101762.50
2022-08-10T17:06:14.482Z,101766.22
2022-08-10T17:08:17.713Z,101771.47
2022-08-10T17:10:20.408Z,101770.38
2022-08-10T17:12:27.938Z,101776.19
2022-08-10T17:14:30.085Z,101767.38
2022-08-10T17:16:40.769Z,101768.81
2022-08-10T17:18:46.955Z,101784.94
2022-08-10T17:20:49.191Z,101785.50
2022-08-10T17:22:57.248Z,101777.84
2022-08-10T17:25:14.339Z,101773.09
2022-08-10T17:28:04.910Z,101779.22
2022-08-10T17:29:57.435Z,101777.06
2022-08-10T17:32:20.855Z,101774.47
2022-08-10T17:34:29.011Z,101774.63
2022-08-10T17:36:35.192Z,101771.38
2022-08-10T17:38:37.678Z,101779.88
2022-08-10T17:41:12.747Z,101773.16
2022-08-10T17:44:01.244Z,101780.22
2022-08-10T17:45:46.776Z,101780.56
2022-08-10T17:47:52.271Z,101785.72
2022-08-10T17:49:58.096Z,101784.16
2022-08-10T17:52:02.665Z,101772.94
2022-08-10T17:54:09.071Z,101787.31
2022-08-10T17:56:11.186Z,101789.44
2022-08-10T17:58:17.859Z,101781.78
2022-08-10T18:00:19.918Z,101786.31
2022-08-10T18:02:26.168Z,101783.13
2022-08-10T18:04:28.201Z,101774.31
2022-08-10T18:06:30.384Z,101784.84
2022-08-10T18:08:39.909Z,101780.06
2022-08-10T18:10:41.903Z,101785.38
2022-08-10T18:12:51.738Z,101780.59
2022-08-10T18:14:54.431Z,101783.88
2022-08-10T18:16:56.431Z,101780.66
2022-08-10T18:19:11.654Z,101773.03
2022-08-10T18:21:19.329Z,101783.69
2022-08-10T18:23:26.965Z,101790.28
2022-08-10T18:25:34.117Z,101782.16
2022-08-10T18:28:01.477Z,101777.75
2022-08-10T18:30:04.855Z,101778.59
2022-08-10T18:32:07.281Z,101789.59
2022-08-10T18:34:12.903Z,101778.66
2022-08-10T18:36:15.373Z,101784.75
2022-08-10T18:38:17.403Z,101791.63
2022-08-10T18:40:19.478Z,101788.41
2022-08-10T18:42:39.030Z,101790.41
2022-08-10T18:44:44.990Z,101799.78
2022-08-10T18:46:53.001Z,101793.66
2022-08-10T18:48:58.649Z,101804.59
2022-08-10T18:51:05.082Z,101811.09
2022-08-10T18:53:16.318Z,101807.00
2022-08-10T18:55:27.199Z,101802.94
2022-08-10T18:57:58.651Z,101808.56
2022-08-10T19:00:12.890Z,101811.38
2022-08-10T19:02:34.473Z,101811.34
2022-08-10T19:05:33.977Z,101822.63
2022-08-10T19:08:49.614Z,101837.75
2022-08-10T19:11:03.854Z,101839.56
2022-08-10T19:13:40.183Z,101838.66
2022-08-10T19:16:15.309Z,101841.00
2022-08-10T19:18:44.993Z,101842.56
2022-08-10T19:20:54.203Z,101846.63
2022-08-10T19:23:15.259Z,101845.28
2022-08-10T19:26:41.216Z,101846.81
2022-08-10T19:28:16.190Z,101845.09
2022-08-10T19:30:18.946Z,101851.47
2022-08-10T19:32:33.240Z,101856.25
2022-08-10T19:34:56.292Z,101851.31
2022-08-10T19:37:07.432Z,101856.44
2022-08-10T19:39:26.437Z,101852.34
2022-08-10T19:42:31.226Z,101849.41
2022-08-10T19:44:52.796Z,101846.47
2022-08-10T19:47:05.904Z,101848.81
2022-08-10T19:49:31.433Z,101849.50
2022-08-10T19:52:10.138Z,101845.66
2022-08-10T19:54:25.684Z,101850.38
2022-08-10T19:56:35.902Z,101845.34
2022-08-10T19:58:57.159Z,101846.72
2022-08-10T20:01:02.331Z,101846.72
2022-08-10T20:03:16.601Z,101847.81
2022-08-10T20:05:32.697Z,101851.69
2022-08-10T20:07:51.435Z,101851.22
2022-08-10T20:10:00.446Z,101855.59
2022-08-10T20:12:34.108Z,101860.63
2022-08-10T20:14:56.483Z,101859.81
2022-08-10T20:17:05.030Z,101862.91
2022-08-10T20:19:12.623Z,101854.16
2022-08-10T20:21:39.415Z,101856.78
2022-08-10T20:23:55.484Z,101861.88
2022-08-10T20:26:02.827Z,101866.00
2022-08-10T20:28:21.611Z,101861.41
2022-08-10T20:30:28.051Z,101871.22
2022-08-10T20:33:02.160Z,101865.16
2022-08-10T20:35:23.338Z,101855.66
2022-08-10T20:37:41.215Z,101859.97
2022-08-10T20:40:32.801Z,101859.84
2022-08-10T20:42:50.060Z,101858.50
2022-08-10T20:45:22.735Z,101860.88
2022-08-10T20:47:53.989Z,101856.25
2022-08-10T20:50:21.504Z,101859.59
2022-08-10T20:52:24.920Z,101860.63
2022-08-10T20:54:42.045Z,101862.72
2022-08-10T20:57:54.856Z,101858.59
2022-08-10T21:00:05.770Z,101866.94
2022-08-10T21:02:29.423Z,101856.31
2022-08-10T21:04:53.839Z,101855.78
2022-08-10T21:07:50.668Z,101868.94
2022-08-10T21:10:34.683Z,101872.19
2022-08-10T21:12:55.632Z,101861.59
2022-08-10T21:15:22.336Z,101859.38
2022-08-10T21:18:29.355Z,101862.97
2022-08-10T21:20:54.869Z,101854.75
2022-08-10T21:22:56.945Z,101860.75
2022-08-10T21:24:58.864Z,101857.47
2022-08-10T21:27:18.664Z,101856.66
2022-08-10T21:30:09.643Z,101853.19
2022-08-10T21:32:50.635Z,101859.19
2022-08-10T21:35:20.088Z,101856.84
2022-08-10T21:37:40.088Z,101850.41
2022-08-10T21:40:00.532Z,101855.84
2022-08-10T21:42:59.770Z,101859.84
2022-08-10T21:45:58.094Z,101860.09
2022-08-10T21:49:08.019Z,101855.03
2022-08-10T21:52:01.966Z,101867.00
2022-08-10T21:55:58.378Z,101869.63
2022-08-10T21:58:27.454Z,101871.63
2022-08-10T22:00:49.490Z,101873.16
2022-08-10T22:03:10.930Z,101865.19
2022-08-10T22:05:38.804Z,101871.72
2022-08-10T22:08:00.414Z,101876.97
2022-08-10T22:10:25.590Z,101873.69
2022-08-10T22:12:52.593Z,101880.38
2022-08-10T22:15:13.163Z,101866.81
2022-08-10T22:17:59.524Z,101878.78
2022-08-10T22:20:27.058Z,101872.97
2022-08-10T22:23:19.026Z,101874.84
2022-08-10T22:26:35.267Z,101876.78
2022-08-10T22:29:11.996Z,101877.66
2022-08-10T22:32:32.211Z,101866.06
2022-08-10T22:35:01.731Z,101865.81
2022-08-10T22:37:31.629Z,101864.66
2022-08-10T22:40:25.760Z,101868.69
2022-08-10T22:42:59.359Z,101870.22
2022-08-10T22:45:35.486Z,101865.50
2022-08-10T22:47:56.348Z,101876.19
2022-08-10T22:50:03.451Z,101863.38
2022-08-10T22:52:17.781Z,101866.66
2022-08-10T22:55:12.141Z,101872.97
2022-08-10T22:57:33.388Z,101864.56
2022-08-10T22:59:35.371Z,101868.28
2022-08-10T23:02:08.848Z,101867.44
2022-08-10T23:04:35.864Z,101865.63
2022-08-10T23:06:38.818Z,101857.47
2022-08-10T23:08:51.159Z,101862.06
2022-08-10T23:10:53.174Z,101855.41
2022-08-10T23:13:08.051Z,101855.09
2022-08-10T23:15:49.392Z,101851.31
2022-08-10T23:18:13.648Z,101852.72
2022-08-10T23:20:17.025Z,101854.53
2022-08-10T23:22:22.267Z,101849.97
2022-08-10T23:24:54.400Z,101843.63
2022-08-10T23:26:57.597Z,101844.22
2022-08-10T23:29:09.604Z,101852.53
2022-08-10T23:31:15.100Z,101844.59
2022-08-10T23:33:17.055Z,101843.78
2022-08-10T23:36:28.132Z,101850.19
2022-08-10T23:38:10.794Z,101851.38
2022-08-10T23:40:15.392Z,101846.22
2022-08-10T23:42:20.256Z,101854.50
2022-08-10T23:44:22.238Z,101852.78
2022-08-10T23:46:25.576Z,101851.47
2022-08-10T23:48:34.536Z,101851.84
2022-08-10T23:50:36.580Z,101857.00
2022-08-10T23:52:38.863Z,101848.81
2022-08-10T23:54:48.020Z,101851.59
2022-08-10T23:56:52.874Z,101847.88
2022-08-10T23:58:55.918Z,101850.22
